Time;durP1;ratioP1;P1;durP2;ratioP2;P2;SDS_P1;SDS_P2;PMS_P1;PMS_P2;Temp;Humidity;BMP_temperature;BMP_pressure;BME280_temperature;BME280_humidity;BME280_pressure;Samples;Min_cycle;Max_cycle;Signal;HPM_P1;HPM_P2
2022/09/09 00:02:27;;;;;;;1.60;0.57;;;20.70;99.90;;;;;;5014914;28;20584;-75
2022/09/09 00:05:01;;;;;;;2.80;0.60;;;20.60;99.90;;;;;;4996683;28;20212;-75
2022/09/09 00:07:42;;;;;;;3.13;0.90;;;20.60;99.90;;;;;;4996561;28;20607;-74
2022/09/09 00:10:25;;;;;;;1.40;0.70;;;20.60;99.90;;;;;;5012598;28;20604;-75
2022/09/09 00:12:55;;;;;;;1.83;0.60;;;20.50;99.90;;;;;;4996317;28;20668;-75
2022/09/09 00:16:02;;;;;;;2.10;0.60;;;20.50;99.90;;;;;;5014153;28;20581;-75
2022/09/09 00:18:50;;;;;;;3.00;0.80;;;20.50;99.90;;;;;;4934126;29;21245;-75
2022/09/09 00:21:17;;;;;;;2.83;0.60;;;20.40;99.90;;;;;;4933801;29;20593;-74
2022/09/09 00:23:51;;;;;;;1.40;0.60;;;20.40;99.90;;;;;;4983949;28;21050;-75
2022/09/09 00:26:20;;;;;;;2.03;0.50;;;20.30;99.90;;;;;;5013926;28;20574;-75
2022/09/09 00:29:18;;;;;;;4.53;0.60;;;20.30;99.90;;;;;;5013881;28;20961;-75
2022/09/09 00:31:46;;;;;;;1.40;0.50;;;20.20;99.90;;;;;;5013319;28;20573;-74
2022/09/09 00:34:21;;;;;;;1.90;0.60;;;20.20;99.90;;;;;;5013752;28;20569;-75
2022/09/09 00:36:51;;;;;;;3.00;0.60;;;20.20;99.90;;;;;;4996006;28;21028;-75
2022/09/09 00:39:23;;;;;;;1.90;0.50;;;20.20;99.90;;;;;;4979681;28;20608;-75
2022/09/09 00:42:08;;;;;;;1.63;0.60;;;20.20;99.90;;;;;;4995948;28;20569;-75
2022/09/09 00:44:39;;;;;;;2.13;0.60;;;20.20;99.90;;;;;;5013363;28;20617;-75
2022/09/09 00:47:44;;;;;;;1.40;0.50;;;20.30;99.90;;;;;;5013436;28;20573;-74
2022/09/09 00:50:24;;;;;;;1.90;0.70;;;20.20;99.90;;;;;;5011476;28;21150;-75
2022/09/09 00:53:15;;;;;;;2.13;0.70;;;20.30;99.90;;;;;;4994612;28;20632;-75
2022/09/09 00:55:56;;;;;;;1.60;0.60;;;20.30;99.90;;;;;;4995486;28;20589;-76
2022/09/09 00:58:22;;;;;;;2.30;0.63;;;20.30;99.90;;;;;;4995525;28;20616;-75
2022/09/09 01:00:57;;;;;;;1.80;0.60;;;20.30;99.90;;;;;;5011481;28;20639;-75
2022/09/09 01:03:36;;;;;;;1.80;0.53;;;20.30;99.90;;;;;;5011680;28;20202;-76
2022/09/09 01:06:25;;;;;;;1.40;0.50;;;20.30;99.90;;;;;;5011920;28;20581;-76
2022/09/09 01:09:14;;;;;;;1.50;0.50;;;20.20;99.90;;;;;;4979011;28;20615;-75
2022/09/09 01:12:10;;;;;;;1.20;0.40;;;20.20;99.90;;;;;;4978859;28;20584;-76
2022/09/09 01:14:38;;;;;;;1.47;0.50;;;20.20;99.90;;;;;;4999105;28;21246;-75
2022/09/09 01:17:18;;;;;;;1.40;0.50;;;20.10;99.90;;;;;;4983371;28;20586;-75
2022/09/09 01:20:25;;;;;;;1.43;0.63;;;20.10;99.90;;;;;;4983037;28;20589;-75
2022/09/09 01:23:16;;;;;;;3.20;0.60;;;20.10;99.90;;;;;;4942793;28;21097;-75
2022/09/09 01:26:17;;;;;;;1.50;0.47;;;20.00;99.90;;;;;;4956196;28;20571;-76
2022/09/09 01:28:49;;;;;;;1.40;0.50;;;20.00;99.90;;;;;;4956149;28;20591;-75
2022/09/09 01:31:26;;;;;;;2.00;0.57;;;19.90;99.90;;;;;;4955906;28;20586;-75
2022/09/09 01:33:52;;;;;;;1.37;0.50;;;19.80;99.90;;;;;;4955918;23;20786;-73
2022/09/09 01:36:34;;;;;;;1.70;0.57;;;19.80;99.90;;;;;;4968721;28;20596;-73
2022/09/09 01:39:00;;;;;;;3.80;0.70;;;19.80;99.90;;;;;;4951369;28;20765;-73
2022/09/09 01:41:27;;;;;;;2.23;0.50;;;19.70;99.90;;;;;;4951296;29;20584;-73
2022/09/09 01:44:00;;;;;;;1.47;0.50;;;19.70;99.90;;;;;;4951957;28;20659;-73
2022/09/09 01:46:29;;;;;;;2.07;0.50;;;19.60;99.90;;;;;;4951030;28;20594;-73
2022/09/09 01:48:58;;;;;;;1.87;0.70;;;19.60;99.90;;;;;;4967967;28;20599;-73
2022/09/09 01:51:25;;;;;;;2.73;0.90;;;19.60;99.90;;;;;;4940689;28;21087;-73
2022/09/09 01:53:52;;;;;;;1.30;0.53;;;19.60;99.90;;;;;;4939306;28;20746;-73
2022/09/09 01:56:20;;;;;;;1.70;0.70;;;19.50;99.90;;;;;;4962450;28;20619;-73
2022/09/09 01:58:52;;;;;;;2.37;0.70;;;19.50;99.90;;;;;;4980838;28;20531;-73
2022/09/09 02:01:43;;;;;;;2.57;0.70;;;19.50;99.90;;;;;;4958446;28;20694;-73
2022/09/09 02:04:52;;;;;;;1.30;0.50;;;19.50;99.90;;;;;;4961057;28;20666;-73
2022/09/09 02:07:28;;;;;;;2.33;0.63;;;19.50;99.90;;;;;;4959723;28;20586;-73
2022/09/09 02:10:25;;;;;;;3.07;0.70;;;19.50;99.90;;;;;;4974621;28;20570;-73
2022/09/09 02:13:16;;;;;;;2.00;0.53;;;19.50;99.90;;;;;;4960486;28;20980;-72
2022/09/09 02:16:03;;;;;;;3.63;0.80;;;19.60;99.90;;;;;;4974790;28;20574;-73
2022/09/09 02:18:39;;;;;;;1.97;0.70;;;19.60;99.90;;;;;;4974794;28;20578;-73
2022/09/09 02:21:07;;;;;;;2.67;0.60;;;19.60;99.90;;;;;;4990671;28;20636;-72
2022/09/09 02:23:35;;;;;;;1.90;0.70;;;19.60;99.90;;;;;;4958604;28;20725;-72
2022/09/09 02:26:05;;;;;;;1.60;0.60;;;19.60;99.90;;;;;;4990924;28;20582;-73
2022/09/09 02:28:33;;;;;;;3.00;0.70;;;19.60;99.90;;;;;;4974736;28;20661;-72
2022/09/09 02:31:00;;;;;;;3.63;0.60;;;19.70;99.90;;;;;;4974455;28;20570;-72
2022/09/09 02:33:38;;;;;;;2.00;0.60;;;19.70;99.90;;;;;;4974584;28;20652;-72
2022/09/09 02:36:06;;;;;;;2.17;0.90;;;19.70;99.90;;;;;;4958656;28;20566;-72
2022/09/09 02:38:37;;;;;;;2.50;0.83;;;19.80;99.90;;;;;;4942669;28;20570;-72
2022/09/09 02:41:08;;;;;;;1.90;0.70;;;19.70;99.90;;;;;;4975172;28;20676;-72
2022/09/09 02:43:37;;;;;;;1.40;0.60;;;19.70;99.90;;;;;;4974551;28;20692;-72
2022/09/09 02:46:50;;;;;;;1.70;0.50;;;19.80;99.90;;;;;;4990816;28;20606;-72
2022/09/09 02:49:30;;;;;;;2.13;0.70;;;19.70;99.90;;;;;;4974602;28;20948;-72
2022/09/09 02:52:19;;;;;;;1.70;0.60;;;19.70;99.90;;;;;;4992320;28;20566;-73
2022/09/09 02:54:45;;;;;;;1.40;0.60;;;19.70;99.90;;;;;;4977750;28;20634;-72
2022/09/09 02:57:18;;;;;;;2.30;0.53;;;19.70;99.90;;;;;;4975083;28;20969;-72
2022/09/09 02:59:47;;;;;;;3.73;0.70;;;19.70;99.90;;;;;;4975067;28;20589;-72
2022/09/09 03:02:13;;;;;;;2.20;0.83;;;19.70;99.90;;;;;;4958476;28;20657;-72
2022/09/09 03:04:44;;;;;;;4.07;0.70;;;19.60;99.90;;;;;;4974171;28;20629;-72
2022/09/09 03:07:12;;;;;;;1.63;0.60;;;19.60;99.90;;;;;;4974415;28;20934;-73
2022/09/09 03:09:38;;;;;;;3.20;0.70;;;19.60;99.90;;;;;;4974137;28;21004;-72
2022/09/09 03:12:04;;;;;;;1.90;0.70;;;19.60;99.90;;;;;;4990359;28;20674;-73
2022/09/09 03:14:32;;;;;;;3.30;0.70;;;19.60;99.90;;;;;;4974587;28;20206;-73
2022/09/09 03:17:00;;;;;;;3.50;0.90;;;19.70;99.90;;;;;;4977963;28;20566;-72
2022/09/09 03:19:29;;;;;;;2.23;0.70;;;19.70;99.90;;;;;;4977770;28;21232;-73
2022/09/09 03:21:55;;;;;;;2.40;0.60;;;19.70;99.90;;;;;;4977724;28;20582;-73
2022/09/09 03:24:22;;;;;;;3.07;0.90;;;19.70;99.90;;;;;;4977647;28;20637;-73
2022/09/09 03:26:50;;;;;;;1.83;0.50;;;19.70;99.90;;;;;;4995230;28;20588;-73
2022/09/09 03:29:18;;;;;;;1.93;0.60;;;19.70;99.90;;;;;;4977542;28;21011;-73
2022/09/09 03:31:44;;;;;;;1.80;0.60;;;19.70;99.90;;;;;;4993843;28;20581;-73
2022/09/09 03:34:11;;;;;;;1.70;0.60;;;19.70;99.90;;;;;;4977360;28;20679;-72
2022/09/09 03:36:37;;;;;;;2.60;1.33;;;19.70;99.90;;;;;;4977556;28;20582;-72
2022/09/09 03:39:04;;;;;;;1.90;0.70;;;19.70;99.90;;;;;;4993793;28;20182;-72
2022/09/09 03:41:31;;;;;;;1.90;0.73;;;19.70;99.90;;;;;;4961230;28;21165;-72
2022/09/09 03:43:58;;;;;;;2.53;0.73;;;19.80;99.90;;;;;;4993486;28;20648;-72
2022/09/09 03:46:26;;;;;;;2.30;0.80;;;19.80;99.90;;;;;;4977453;28;20574;-72
2022/09/09 03:48:53;;;;;;;4.30;0.80;;;19.80;99.90;;;;;;4977403;28;20733;-72
2022/09/09 03:51:19;;;;;;;2.37;0.60;;;19.80;99.90;;;;;;4993491;28;21067;-72
2022/09/09 03:53:46;;;;;;;3.03;0.80;;;19.80;99.90;;;;;;4977095;28;20653;-73
2022/09/09 03:56:12;;;;;;;3.30;0.70;;;19.70;99.90;;;;;;4993493;28;21014;-72
2022/09/09 03:58:38;;;;;;;2.87;0.70;;;19.80;99.90;;;;;;4977320;28;20673;-73
2022/09/09 04:01:09;;;;;;;2.70;0.70;;;19.80;99.90;;;;;;4993352;28;20754;-72
2022/09/09 04:03:36;;;;;;;5.43;0.80;;;19.80;99.90;;;;;;4960789;28;21246;-73
2022/09/09 04:06:04;;;;;;;2.60;0.80;;;19.80;99.90;;;;;;4976910;28;20622;-72
2022/09/09 04:08:31;;;;;;;2.23;0.70;;;19.80;99.90;;;;;;4977086;28;20202;-73
2022/09/09 04:11:00;;;;;;;2.27;0.60;;;19.80;99.90;;;;;;4976893;28;20578;-73
2022/09/09 04:13:27;;;;;;;1.97;0.70;;;19.80;99.90;;;;;;4993297;28;20656;-73
2022/09/09 04:15:57;;;;;;;3.30;0.90;;;19.80;99.90;;;;;;4993510;28;20669;-73
2022/09/09 04:18:23;;;;;;;15.57;1.03;;;19.70;99.90;;;;;;4961158;28;21364;-72
2022/09/09 04:20:50;;;;;;;2.03;0.70;;;19.70;99.90;;;;;;4961301;28;20942;-73
2022/09/09 04:23:20;;;;;;;1.80;0.60;;;19.70;99.90;;;;;;4960964;28;20633;-72
2022/09/09 04:25:48;;;;;;;1.70;0.73;;;19.70;99.90;;;;;;4977212;28;21013;-79
2022/09/09 04:28:15;;;;;;;3.97;0.70;;;19.60;99.90;;;;;;4977381;28;20616;-79
2022/09/09 04:30:43;;;;;;;1.90;0.63;;;19.60;99.90;;;;;;4977407;28;20579;-79
2022/09/09 04:33:09;;;;;;;4.37;0.90;;;19.60;99.90;;;;;;4960869;28;21212;-79
2022/09/09 04:35:36;;;;;;;7.93;1.10;;;19.60;99.90;;;;;;4993968;28;20605;-79
2022/09/09 04:38:02;;;;;;;3.43;0.90;;;19.70;99.90;;;;;;4977864;28;20578;-78
2022/09/09 04:40:31;;;;;;;1.90;0.70;;;19.70;99.90;;;;;;4960931;28;21213;-79
2022/09/09 04:43:02;;;;;;;3.23;0.70;;;19.70;99.90;;;;;;4976955;28;20566;-78
2022/09/09 04:45:28;;;;;;;1.63;0.67;;;19.70;99.90;;;;;;4994665;28;20578;-79
2022/09/09 04:47:55;;;;;;;2.50;0.70;;;19.70;99.90;;;;;;4977300;28;20737;-79
2022/09/09 04:50:21;;;;;;;1.87;0.90;;;19.70;99.90;;;;;;4965568;28;20593;-78
2022/09/09 04:52:48;;;;;;;2.47;0.70;;;19.70;99.90;;;;;;4994486;28;20562;-79
2022/09/09 04:55:14;;;;;;;2.37;0.80;;;19.80;99.90;;;;;;4994642;28;20687;-79
2022/09/09 04:57:43;;;;;;;2.07;1.00;;;19.70;99.90;;;;;;4976785;28;20570;-78
2022/09/09 05:00:12;;;;;;;3.23;1.00;;;19.80;99.90;;;;;;4992302;28;20574;-78
2022/09/09 05:02:42;;;;;;;3.07;0.90;;;19.80;99.90;;;;;;4976797;28;20597;-78
2022/09/09 05:05:08;;;;;;;3.63;0.90;;;19.90;99.90;;;;;;4976418;28;20609;-78
2022/09/09 05:07:34;;;;;;;3.17;0.90;;;19.90;99.90;;;;;;4976951;28;20574;-77
2022/09/09 05:10:00;;;;;;;2.13;0.90;;;19.90;99.90;;;;;;4992457;28;20577;-77
2022/09/09 05:12:26;;;;;;;2.20;0.70;;;19.80;99.90;;;;;;4992385;28;20171;-77
2022/09/09 05:14:52;;;;;;;1.70;0.70;;;19.80;99.90;;;;;;4976009;28;20673;-78
2022/09/09 05:17:18;;;;;;;3.97;1.00;;;19.80;99.90;;;;;;4976205;28;21098;-78
2022/09/09 05:19:44;;;;;;;4.27;0.80;;;19.80;99.90;;;;;;4976494;28;20545;-78
2022/09/09 05:22:11;;;;;;;3.30;1.97;;;19.80;99.90;;;;;;4992595;28;20578;-78
2022/09/09 05:24:42;;;;;;;3.20;0.73;;;19.80;99.90;;;;;;4960816;28;20604;-71
2022/09/09 05:27:11;;;;;;;3.80;1.00;;;19.80;99.90;;;;;;4992336;28;20657;-72
2022/09/09 05:29:38;;;;;;;2.80;0.70;;;19.80;99.90;;;;;;4992120;28;20582;-72
2022/09/09 05:32:06;;;;;;;1.80;0.80;;;19.80;99.90;;;;;;4992105;28;20640;-72
2022/09/09 05:34:32;;;;;;;4.83;1.03;;;19.80;99.90;;;;;;4991699;28;20646;-73
2022/09/09 05:36:58;;;;;;;2.87;0.90;;;19.80;99.90;;;;;;4975548;28;20992;-72
2022/09/09 05:39:24;;;;;;;3.53;0.80;;;19.80;99.90;;;;;;4975176;28;20175;-72
2022/09/09 05:41:51;;;;;;;3.50;0.90;;;19.70;99.90;;;;;;4975630;28;21150;-71
2022/09/09 05:44:17;;;;;;;3.23;0.80;;;19.70;99.90;;;;;;4992015;28;20712;-72
2022/09/09 05:46:44;;;;;;;3.23;0.80;;;19.70;99.90;;;;;;4976313;28;20581;-72
2022/09/09 05:49:11;;;;;;;4.03;0.73;;;19.70;99.90;;;;;;4991746;28;20579;-72
2022/09/09 05:51:40;;;;;;;2.37;0.70;;;19.70;99.90;;;;;;4991514;28;20579;-71
2022/09/09 05:54:10;;;;;;;3.43;0.90;;;19.70;99.90;;;;;;4975249;28;20634;-71
2022/09/09 05:56:41;;;;;;;2.20;0.70;;;19.70;99.90;;;;;;4975358;28;21122;-73
2022/09/09 05:59:07;;;;;;;2.10;0.70;;;19.70;99.90;;;;;;4959330;28;20942;-72
2022/09/09 06:01:35;;;;;;;4.47;1.37;;;19.80;99.90;;;;;;4992678;28;20571;-72
2022/09/09 06:04:03;;;;;;;3.43;0.90;;;19.80;99.90;;;;;;4991370;28;20191;-73
2022/09/09 06:06:36;;;;;;;3.03;0.90;;;19.80;99.90;;;;;;4991378;28;20574;-72
2022/09/09 06:09:09;;;;;;;1.83;0.90;;;19.90;99.90;;;;;;4991470;28;20570;-73
2022/09/09 06:11:38;;;;;;;3.60;0.90;;;20.00;99.90;;;;;;4975085;28;21211;-72
2022/09/09 06:14:05;;;;;;;2.20;0.70;;;20.00;99.90;;;;;;4992013;28;20645;-73
2022/09/09 06:16:32;;;;;;;2.03;0.70;;;20.10;99.90;;;;;;4975138;28;20578;-72
2022/09/09 06:18:59;;;;;;;5.47;0.80;;;20.20;99.90;;;;;;4992522;28;20636;-72
2022/09/09 06:21:36;;;;;;;2.00;0.70;;;20.30;99.90;;;;;;4959307;28;21186;-73
2022/09/09 06:24:03;;;;;;;3.07;0.70;;;20.30;99.90;;;;;;4975238;28;20610;-73
2022/09/09 06:26:32;;;;;;;4.13;0.70;;;20.40;99.90;;;;;;4954166;28;21033;-72
2022/09/09 06:29:03;;;;;;;2.97;0.70;;;20.40;99.90;;;;;;4977537;28;20650;-72
2022/09/09 06:31:31;;;;;;;2.93;0.90;;;20.40;99.90;;;;;;4989974;28;20593;-72
2022/09/09 06:34:00;;;;;;;2.03;0.80;;;20.50;99.90;;;;;;4938252;29;21177;-72
2022/09/09 06:36:33;;;;;;;4.83;0.80;;;20.50;99.90;;;;;;4937230;28;20635;-72
2022/09/09 06:39:00;;;;;;;3.07;0.70;;;20.50;99.90;;;;;;4963902;28;20996;-72
2022/09/09 06:41:29;;;;;;;3.20;0.70;;;20.60;99.90;;;;;;4974475;28;20935;-73
2022/09/09 06:43:56;;;;;;;2.00;0.80;;;20.70;99.90;;;;;;4974743;28;20590;-73
2022/09/09 06:46:32;;;;;;;3.80;0.70;;;20.70;99.90;;;;;;4960061;28;20659;-73
2022/09/09 06:49:00;;;;;;;5.30;0.70;;;20.70;99.90;;;;;;4974780;28;21080;-72
2022/09/09 06:51:31;;;;;;;2.33;0.60;;;20.80;99.90;;;;;;4995421;28;20636;-72
2022/09/09 06:53:59;;;;;;;2.50;0.73;;;20.90;99.90;;;;;;4962439;28;20648;-73
2022/09/09 06:56:27;;;;;;;2.67;0.70;;;21.20;99.90;;;;;;4978729;28;20581;-72
2022/09/09 06:58:56;;;;;;;3.80;0.80;;;21.90;99.90;;;;;;4962501;28;20936;-73
2022/09/09 07:01:28;;;;;;;4.53;0.80;;;22.70;99.90;;;;;;4978584;28;20578;-73
2022/09/09 07:03:58;;;;;;;2.77;0.80;;;23.60;99.90;;;;;;4995307;28;21057;-72
2022/09/09 07:06:34;;;;;;;2.00;0.70;;;24.40;99.90;;;;;;4995227;28;20589;-73
2022/09/09 07:09:08;;;;;;;2.17;0.70;;;25.40;99.90;;;;;;4995033;28;20751;-73
2022/09/09 07:11:47;;;;;;;3.10;0.70;;;26.20;99.90;;;;;;4962510;28;20717;-72
2022/09/09 07:14:15;;;;;;;2.27;0.70;;;27.00;99.90;;;;;;4978283;28;20642;-73
2022/09/09 07:16:45;;;;;;;1.80;0.60;;;27.90;99.90;;;;;;4978812;28;20626;-72
2022/09/09 07:19:14;;;;;;;2.33;0.67;;;28.70;99.90;;;;;;4978333;28;20570;-72
2022/09/09 07:21:41;;;;;;;3.37;0.80;;;29.50;99.90;;;;;;4978054;28;20578;-72
2022/09/09 07:24:09;;;;;;;3.20;0.90;;;30.00;99.90;;;;;;4962223;28;21167;-73
2022/09/09 07:26:37;;;;;;;2.10;0.60;;;30.50;99.20;;;;;;4962370;28;20613;-72
2022/09/09 07:29:03;;;;;;;3.67;2.00;;;30.70;96.10;;;;;;4978232;28;20575;-73
2022/09/09 07:31:32;;;;;;;5.23;0.70;;;31.00;95.50;;;;;;4994277;28;20575;-73
2022/09/09 07:33:59;;;;;;;2.90;0.63;;;31.60;94.90;;;;;;4977629;28;20743;-72
2022/09/09 07:36:32;;;;;;;2.20;0.70;;;32.30;94.20;;;;;;4994252;28;20580;-73
2022/09/09 07:39:05;;;;;;;2.30;0.60;;;33.00;92.70;;;;;;4977939;28;20632;-72
2022/09/09 07:41:42;;;;;;;2.80;0.90;;;33.70;90.80;;;;;;4994157;28;20896;-72
2022/09/09 07:44:11;;;;;;;3.10;0.70;;;34.30;87.50;;;;;;4978087;28;21225;-72
2022/09/09 07:46:41;;;;;;;3.20;0.70;;;34.50;79.40;;;;;;4945920;28;20677;-72
2022/09/09 07:49:10;;;;;;;2.00;0.70;;;34.30;78.50;;;;;;4994194;28;20594;-73
2022/09/09 07:51:40;;;;;;;3.17;0.70;;;34.40;75.40;;;;;;4961516;28;20632;-72
2022/09/09 07:54:09;;;;;;;2.53;0.73;;;34.60;74.50;;;;;;4976222;23;20777;-74
2022/09/09 07:56:37;;;;;;;2.83;0.70;;;34.80;72.40;;;;;;4952153;28;20631;-74
2022/09/09 07:59:06;;;;;;;2.47;0.60;;;34.60;68.80;;;;;;4973928;28;20639;-74
2022/09/09 08:01:42;;;;;;;2.40;0.63;;;34.10;67.10;;;;;;4956937;28;20972;-74
2022/09/09 08:04:14;;;;;;;2.20;0.80;;;33.60;65.00;;;;;;4972677;28;21246;-74
2022/09/09 08:06:42;;;;;;;2.40;0.70;;;33.10;64.60;;;;;;4960830;28;20573;-74
2022/09/09 08:09:09;;;;;;;2.37;0.70;;;32.40;64.60;;;;;;4977137;28;20574;-74
2022/09/09 08:11:38;;;;;;;2.50;0.70;;;31.90;64.50;;;;;;4976842;28;20622;-73
2022/09/09 08:14:04;;;;;;;2.53;0.90;;;31.30;64.00;;;;;;4976787;28;20644;-74
2022/09/09 08:16:32;;;;;;;2.23;0.60;;;30.60;63.90;;;;;;4976697;28;20588;-73
2022/09/09 08:18:59;;;;;;;5.20;0.70;;;30.00;63.70;;;;;;4992899;28;20566;-73
2022/09/09 08:21:28;;;;;;;2.80;0.73;;;29.20;64.00;;;;;;4993768;28;20565;-73
2022/09/09 08:23:57;;;;;;;3.57;0.80;;;28.60;64.40;;;;;;4960356;28;20194;-74
2022/09/09 08:26:26;;;;;;;2.03;0.80;;;28.10;65.30;;;;;;4976755;28;20592;-73
2022/09/09 08:28:56;;;;;;;2.50;0.83;;;27.60;66.30;;;;;;4994039;28;20733;-73
2022/09/09 08:31:31;;;;;;;2.90;0.60;;;27.20;67.10;;;;;;4976021;28;20614;-73
2022/09/09 08:34:03;;;;;;;2.53;0.70;;;26.90;68.00;;;;;;4993556;28;20785;-73
2022/09/09 08:36:33;;;;;;;1.80;0.80;;;26.60;69.30;;;;;;4976442;28;20583;-73
2022/09/09 08:38:59;;;;;;;2.90;0.83;;;26.60;70.10;;;;;;4976282;28;21217;-73
2022/09/09 08:42:02;;;;;;;2.50;0.70;;;26.40;70.60;;;;;;4959666;28;20593;-73
2022/09/09 08:44:55;;;;;;;3.63;0.70;;;26.50;70.30;;;;;;4948251;28;20627;-73
2022/09/09 08:47:34;;;;;;;2.40;0.63;;;26.90;72.10;;;;;;4963364;28;20697;-73
2022/09/09 08:50:24;;;;;;;3.03;0.90;;;27.50;72.40;;;;;;4967404;28;20590;-73
2022/09/09 08:53:05;;;;;;;2.17;0.60;;;27.70;70.40;;;;;;4976284;28;20980;-74
2022/09/09 08:55:58;;;;;;;1.30;0.47;;;27.80;68.20;;;;;;4976791;28;20612;-73
2022/09/09 08:58:53;;;;;;;1.93;0.60;;;27.60;66.60;;;;;;4992773;28;20596;-73
2022/09/09 09:02:02;;;;;;;2.73;0.50;;;27.60;68.00;;;;;;4959569;28;20585;-74
2022/09/09 09:04:54;;;;;;;2.70;0.60;;;27.60;68.70;;;;;;4958488;28;20607;-74
2022/09/09 09:07:49;;;;;;;3.00;0.70;;;27.70;68.50;;;;;;4959381;28;20995;-73
2022/09/09 09:10:38;;;;;;;1.60;0.60;;;28.00;69.80;;;;;;4970976;28;20590;-73
2022/09/09 09:13:17;;;;;;;1.70;0.60;;;28.50;70.90;;;;;;4966548;28;20614;-73
2022/09/09 09:15:50;;;;;;;2.80;0.70;;;28.80;69.40;;;;;;4958508;28;20678;-73
2022/09/09 09:18:17;;;;;;;2.87;0.60;;;28.80;67.90;;;;;;4967401;28;20611;-73
2022/09/09 09:21:15;;;;;;;2.20;0.70;;;28.80;67.10;;;;;;4959247;28;20809;-73
2022/09/09 09:24:01;;;;;;;1.50;0.50;;;28.60;66.30;;;;;;4959313;28;20997;-73
2022/09/09 09:26:35;;;;;;;2.40;0.57;;;28.40;66.70;;;;;;4975520;28;20573;-72
2022/09/09 09:29:14;;;;;;;2.57;0.60;;;28.20;65.60;;;;;;4975500;28;20618;-73
2022/09/09 09:31:52;;;;;;;2.03;0.50;;;27.90;64.80;;;;;;4975308;28;20581;-73
2022/09/09 09:34:18;;;;;;;5.73;0.60;;;27.50;65.00;;;;;;4975305;28;20645;-73
2022/09/09 09:36:52;;;;;;;2.00;0.60;;;27.10;64.90;;;;;;4958971;28;20945;-73
2022/09/09 09:39:39;;;;;;;3.37;0.80;;;26.80;65.30;;;;;;4975164;28;20574;-72
2022/09/09 09:42:23;;;;;;;2.73;0.70;;;26.50;65.80;;;;;;4969277;28;20569;-73
2022/09/09 09:44:51;;;;;;;4.27;0.60;;;26.20;66.70;;;;;;4975266;28;20597;-73
2022/09/09 09:47:22;;;;;;;2.90;0.70;;;26.10;67.50;;;;;;4975213;28;20574;-73
2022/09/09 09:50:18;;;;;;;1.90;0.50;;;26.00;68.20;;;;;;4992511;28;20577;-73
2022/09/09 09:53:01;;;;;;;1.53;0.50;;;25.90;68.70;;;;;;4958714;28;20656;-73
2022/09/09 09:55:33;;;;;;;4.90;0.70;;;25.80;69.10;;;;;;4974927;28;20597;-73
2022/09/09 09:58:13;;;;;;;1.67;0.57;;;25.70;69.50;;;;;;4992469;28;21126;-73
2022/09/09 10:00:49;;;;;;;2.83;0.60;;;25.70;70.00;;;;;;4974757;28;20566;-73
2022/09/09 10:03:22;;;;;;;2.43;0.70;;;25.60;69.90;;;;;;4958760;28;20599;-73
2022/09/09 10:05:50;;;;;;;1.53;0.50;;;25.60;70.50;;;;;;4967070;28;20615;-73
2022/09/09 10:08:17;;;;;;;3.53;0.70;;;25.70;71.10;;;;;;4992163;28;20566;-73
2022/09/09 10:10:58;;;;;;;2.93;0.70;;;25.70;71.10;;;;;;4991821;28;20666;-73
2022/09/09 10:13:55;;;;;;;2.73;0.57;;;25.80;71.10;;;;;;4991920;28;20676;-73
2022/09/09 10:16:39;;;;;;;1.70;0.60;;;25.80;70.90;;;;;;4992197;28;20566;-73
2022/09/09 10:19:40;;;;;;;1.80;0.87;;;25.80;70.50;;;;;;4974429;28;20566;-73
2022/09/09 10:22:28;;;;;;;6.43;1.00;;;25.60;69.90;;;;;;4947837;28;20681;-73
2022/09/09 10:24:59;;;;;;;1.80;0.60;;;25.50;69.80;;;;;;4974548;28;20566;-73
2022/09/09 10:27:54;;;;;;;2.30;0.60;;;25.40;70.20;;;;;;4992094;28;20574;-73
2022/09/09 10:30:33;;;;;;;1.50;0.60;;;25.30;70.20;;;;;;4974274;28;20574;-73
2022/09/09 10:33:05;;;;;;;4.13;0.53;;;25.10;70.60;;;;;;4985250;28;20601;-73
2022/09/09 10:35:53;;;;;;;1.50;0.60;;;25.10;70.90;;;;;;4974674;28;20574;-73
2022/09/09 10:38:45;;;;;;;2.27;0.50;;;25.10;71.30;;;;;;4961517;28;20987;-73
2022/09/09 10:41:51;;;;;;;2.30;0.57;;;25.10;72.70;;;;;;4986492;28;20571;-73
2022/09/09 10:44:59;;;;;;;2.30;0.50;;;25.40;73.50;;;;;;4958556;28;20660;-74
2022/09/09 10:47:36;;;;;;;1.70;0.50;;;25.80;74.40;;;;;;4992001;28;20933;-74
2022/09/09 10:50:18;;;;;;;2.23;0.50;;;26.20;73.90;;;;;;4991546;28;20573;-74
2022/09/09 10:52:57;;;;;;;2.37;0.60;;;26.50;73.20;;;;;;4991427;28;20610;-74
2022/09/09 10:55:37;;;;;;;4.33;0.70;;;26.90;72.10;;;;;;4991810;28;20574;-74
2022/09/09 10:58:06;;;;;;;1.90;0.50;;;27.30;73.70;;;;;;4985828;28;20581;-74
2022/09/09 11:00:38;;;;;;;1.50;0.50;;;27.80;74.40;;;;;;4991410;28;20667;-74
2022/09/09 11:03:06;;;;;;;2.57;0.60;;;28.30;74.00;;;;;;4990232;28;20621;-74
2022/09/09 11:05:44;;;;;;;1.67;0.40;;;28.80;72.50;;;;;;4974381;28;20586;-74
2022/09/09 11:08:13;;;;;;;1.97;0.60;;;29.20;69.20;;;;;;4991574;28;20557;-74
2022/09/09 11:10:58;;;;;;;2.10;0.70;;;29.50;69.30;;;;;;4991216;28;20573;-74
2022/09/09 11:13:33;;;;;;;3.43;0.50;;;29.60;66.10;;;;;;4991486;28;20680;-74
2022/09/09 11:16:21;;;;;;;2.13;0.60;;;29.70;65.30;;;;;;4974152;28;21080;-74
2022/09/09 11:18:47;;;;;;;2.33;0.57;;;29.60;64.90;;;;;;4974215;28;20582;-74
2022/09/09 11:21:25;;;;;;;1.60;0.50;;;29.60;63.70;;;;;;4991238;28;20574;-74
2022/09/09 11:24:04;;;;;;;1.50;0.50;;;29.50;62.20;;;;;;4984094;28;20643;-74
2022/09/09 11:26:45;;;;;;;1.23;0.40;;;29.20;61.40;;;;;;4973119;28;20622;-74
2022/09/09 11:29:41;;;;;;;2.27;0.50;;;28.90;61.00;;;;;;4981724;28;20590;-74
2022/09/09 11:32:43;;;;;;;1.90;0.77;;;28.60;61.10;;;;;;4991374;28;20574;-74
2022/09/09 11:35:18;;;;;;;2.53;0.60;;;28.10;60.60;;;;;;4981808;28;20634;-74
2022/09/09 11:38:06;;;;;;;1.80;0.50;;;27.80;60.90;;;;;;4967207;28;20601;-74
2022/09/09 11:40:33;;;;;;;2.40;0.53;;;27.60;61.30;;;;;;4960814;28;20700;-74
2022/09/09 11:43:08;;;;;;;2.20;0.60;;;27.30;61.90;;;;;;4983271;28;20621;-74
2022/09/09 11:45:35;;;;;;;2.63;0.60;;;27.10;62.10;;;;;;4981317;28;20593;-74
2022/09/09 11:48:02;;;;;;;2.77;0.60;;;27.00;62.40;;;;;;4985392;28;20590;-74
2022/09/09 11:50:37;;;;;;;1.43;0.40;;;26.80;62.60;;;;;;4986445;28;20582;-74
2022/09/09 11:53:23;;;;;;;2.73;0.67;;;26.70;62.90;;;;;;4994233;28;20644;-73
2022/09/09 11:56:06;;;;;;;1.87;0.83;;;26.60;62.70;;;;;;4994587;28;20717;-74
2022/09/09 11:58:38;;;;;;;2.00;0.57;;;26.50;62.90;;;;;;4994524;28;20574;-74
2022/09/09 12:01:33;;;;;;;3.70;0.60;;;26.40;62.80;;;;;;4994145;28;20623;-74
2022/09/09 12:04:33;;;;;;;1.70;0.53;;;26.30;63.50;;;;;;4994360;28;20601;-73
2022/09/09 12:07:27;;;;;;;1.27;0.50;;;26.20;63.20;;;;;;4994435;28;20908;-74
2022/09/09 12:10:20;;;;;;;1.60;0.50;;;26.10;63.70;;;;;;4994161;28;20562;-73
2022/09/09 12:12:46;;;;;;;2.63;0.50;;;26.00;63.60;;;;;;4976697;28;20616;-74
2022/09/09 12:15:11;;;;;;;2.73;0.60;;;25.80;63.20;;;;;;4994178;28;20625;-74
2022/09/09 12:17:44;;;;;;;1.73;0.60;;;25.70;63.60;;;;;;4994506;28;20225;-74
2022/09/09 12:20:13;;;;;;;1.60;0.60;;;25.50;63.80;;;;;;4994019;28;20590;-74
2022/09/09 12:23:09;;;;;;;2.60;0.43;;;25.40;64.10;;;;;;4993987;28;20598;-73
2022/09/09 12:25:37;;;;;;;3.00;0.60;;;25.40;64.60;;;;;;4992922;28;20621;-74
2022/09/09 12:28:11;;;;;;;1.77;0.50;;;25.30;64.80;;;;;;4985640;28;20945;-74
2022/09/09 12:31:01;;;;;;;3.80;0.50;;;25.40;65.20;;;;;;4993746;28;20633;-74
2022/09/09 12:33:39;;;;;;;2.87;0.70;;;25.40;65.60;;;;;;4993604;28;20629;-74
2022/09/09 12:36:09;;;;;;;2.43;0.60;;;25.50;65.70;;;;;;4992527;28;21213;-73
2022/09/09 12:38:39;;;;;;;1.77;0.63;;;25.60;65.90;;;;;;4993803;28;20578;-74
2022/09/09 12:41:05;;;;;;;1.70;0.50;;;25.60;65.60;;;;;;4993505;28;20574;-74
2022/09/09 12:43:31;;;;;;;2.10;0.50;;;25.70;65.80;;;;;;4976120;28;20620;-74
2022/09/09 12:46:08;;;;;;;3.37;0.80;;;25.70;65.50;;;;;;4993632;28;20570;-74
2022/09/09 12:48:41;;;;;;;2.83;0.50;;;25.60;65.50;;;;;;4993485;28;20661;-74
2022/09/09 12:51:26;;;;;;;2.33;0.53;;;25.50;65.30;;;;;;4993219;28;20673;-74
2022/09/09 12:53:52;;;;;;;1.90;0.60;;;25.40;65.50;;;;;;4993298;28;20736;-74
2022/09/09 12:56:26;;;;;;;1.50;0.53;;;25.30;65.90;;;;;;4993414;28;20946;-73
2022/09/09 12:58:54;;;;;;;5.13;0.70;;;25.40;66.60;;;;;;4993544;28;21383;-73
2022/09/09 13:01:32;;;;;;;2.07;0.67;;;25.50;67.70;;;;;;4993005;28;20673;-73
2022/09/09 13:03:59;;;;;;;1.90;0.70;;;25.60;68.60;;;;;;4975895;28;20614;-73
2022/09/09 13:06:30;;;;;;;6.43;1.10;;;25.80;68.90;;;;;;4993220;28;20694;-73
2022/09/09 13:08:59;;;;;;;1.60;0.60;;;26.00;69.20;;;;;;4993164;28;20664;-74
2022/09/09 13:11:31;;;;;;;1.40;0.70;;;26.00;69.10;;;;;;4992796;28;20577;-74
2022/09/09 13:13:58;;;;;;;3.03;0.60;;;26.10;69.30;;;;;;4975642;28;20728;-74
2022/09/09 13:16:33;;;;;;;1.80;0.70;;;26.00;68.90;;;;;;4993326;28;21194;-73
2022/09/09 13:19:09;;;;;;;2.20;0.90;;;25.90;69.20;;;;;;4993154;28;20569;-74
2022/09/09 13:21:37;;;;;;;2.97;1.70;;;25.90;69.90;;;;;;4959130;28;20678;-74
2022/09/09 13:24:29;;;;;;;6.07;3.40;;;25.90;70.00;;;;;;4975550;28;20616;-73
2022/09/09 13:27:01;;;;;;;3.17;2.03;;;25.80;70.30;;;;;;4993082;28;20629;-74